sensor_id;sensor_type;location;lat;lon;timestamp;pressure;altitude;pressure_sealevel;temperature
44429;BMP180;30134;47.866;-4.222;2022-07-23T00:00:42;102234.00;;;28.60
44429;BMP180;30134;47.866;-4.222;2022-07-23T00:03:09;102247.00;;;28.40
44429;BMP180;30134;47.866;-4.222;2022-07-23T00:05:35;102248.00;;;28.50
44429;BMP180;30134;47.866;-4.222;2022-07-23T00:08:01;102237.00;;;28.40
44429;BMP180;30134;47.866;-4.222;2022-07-23T00:10:27;102232.00;;;28.40
44429;BMP180;30134;47.866;-4.222;2022-07-23T00:12:53;102240.00;;;28.40
44429;BMP180;30134;47.866;-4.222;2022-07-23T00:15:19;102238.00;;;28.60
44429;BMP180;30134;47.866;-4.222;2022-07-23T00:17:45;102233.00;;;28.50
44429;BMP180;30134;47.866;-4.222;2022-07-23T00:20:11;102239.00;;;28.50
44429;BMP180;30134;47.866;-4.222;2022-07-23T00:22:48;102235.00;;;28.40
44429;BMP180;30134;47.866;-4.222;2022-07-23T00:25:15;102226.00;;;28.60
44429;BMP180;30134;47.866;-4.222;2022-07-23T00:27:41;102235.00;;;28.40
44429;BMP180;30134;47.866;-4.222;2022-07-23T00:30:08;102226.00;;;28.50
44429;BMP180;30134;47.866;-4.222;2022-07-23T00:32:53;102222.00;;;28.50
44429;BMP180;30134;47.866;-4.222;2022-07-23T00:35:26;102223.00;;;28.60
44429;BMP180;30134;47.866;-4.222;2022-07-23T00:37:54;102222.00;;;28.20
44429;BMP180;30134;47.866;-4.222;2022-07-23T00:40:20;102214.00;;;28.50
44429;BMP180;30134;47.866;-4.222;2022-07-23T00:42:46;102216.00;;;28.30
44429;BMP180;30134;47.866;-4.222;2022-07-23T00:45:12;102220.00;;;28.50
44429;BMP180;30134;47.866;-4.222;2022-07-23T00:47:45;102216.00;;;28.40
44429;BMP180;30134;47.866;-4.222;2022-07-23T00:50:12;102217.00;;;28.60
44429;BMP180;30134;47.866;-4.222;2022-07-23T00:52:39;102205.00;;;28.40
44429;BMP180;30134;47.866;-4.222;2022-07-23T00:55:08;102202.00;;;28.40
44429;BMP180;30134;47.866;-4.222;2022-07-23T00:57:38;102201.00;;;28.30
44429;BMP180;30134;47.866;-4.222;2022-07-23T01:00:06;102204.00;;;28.20
44429;BMP180;30134;47.866;-4.222;2022-07-23T01:02:32;102202.00;;;28.40
44429;BMP180;30134;47.866;-4.222;2022-07-23T01:04:58;102202.00;;;28.20
44429;BMP180;30134;47.866;-4.222;2022-07-23T01:07:24;102214.00;;;28.50
44429;BMP180;30134;47.866;-4.222;2022-07-23T01:09:52;102210.00;;;28.40
44429;BMP180;30134;47.866;-4.222;2022-07-23T01:12:18;102219.00;;;28.50
44429;BMP180;30134;47.866;-4.222;2022-07-23T01:14:44;102212.00;;;28.40
44429;BMP180;30134;47.866;-4.222;2022-07-23T01:17:10;102202.00;;;28.30
44429;BMP180;30134;47.866;-4.222;2022-07-23T01:19:36;102191.00;;;28.30
44429;BMP180;30134;47.866;-4.222;2022-07-23T01:22:03;102195.00;;;28.50
44429;BMP180;30134;47.866;-4.222;2022-07-23T01:24:30;102199.00;;;28.40
44429;BMP180;30134;47.866;-4.222;2022-07-23T01:26:56;102210.00;;;28.60
44429;BMP180;30134;47.866;-4.222;2022-07-23T01:29:22;102217.00;;;28.40
44429;BMP180;30134;47.866;-4.222;2022-07-23T01:31:48;102216.00;;;28.60
44429;BMP180;30134;47.866;-4.222;2022-07-23T01:34:14;102222.00;;;28.40
44429;BMP180;30134;47.866;-4.222;2022-07-23T01:36:40;102219.00;;;28.60
44429;BMP180;30134;47.866;-4.222;2022-07-23T01:39:07;102219.00;;;28.30
44429;BMP180;30134;47.866;-4.222;2022-07-23T01:41:33;102208.00;;;28.70
44429;BMP180;30134;47.866;-4.222;2022-07-23T01:43:59;102212.00;;;28.30
44429;BMP180;30134;47.866;-4.222;2022-07-23T01:46:25;102202.00;;;28.50
44429;BMP180;30134;47.866;-4.222;2022-07-23T01:48:58;102200.00;;;28.40
44429;BMP180;30134;47.866;-4.222;2022-07-23T01:51:24;102199.00;;;28.60
44429;BMP180;30134;47.866;-4.222;2022-07-23T01:53:50;102204.00;;;28.50
44429;BMP180;30134;47.866;-4.222;2022-07-23T01:56:16;102195.00;;;28.60
44429;BMP180;30134;47.866;-4.222;2022-07-23T01:58:42;102183.00;;;28.40
44429;BMP180;30134;47.866;-4.222;2022-07-23T02:01:08;102181.00;;;28.60
44429;BMP180;30134;47.866;-4.222;2022-07-23T02:03:34;102178.00;;;28.20
44429;BMP180;30134;47.866;-4.222;2022-07-23T02:06:00;102183.00;;;28.50
44429;BMP180;30134;47.866;-4.222;2022-07-23T02:08:26;102186.00;;;28.30
44429;BMP180;30134;47.866;-4.222;2022-07-23T02:10:52;102186.00;;;28.40
44429;BMP180;30134;47.866;-4.222;2022-07-23T02:13:18;102187.00;;;28.40
44429;BMP180;30134;47.866;-4.222;2022-07-23T02:15:46;102172.00;;;28.60
44429;BMP180;30134;47.866;-4.222;2022-07-23T02:18:12;102173.00;;;28.30
44429;BMP180;30134;47.866;-4.222;2022-07-23T02:20:38;102177.00;;;28.60
44429;BMP180;30134;47.866;-4.222;2022-07-23T02:23:10;102176.00;;;28.50
44429;BMP180;30134;47.866;-4.222;2022-07-23T02:25:36;102164.00;;;28.50
44429;BMP180;30134;47.866;-4.222;2022-07-23T02:28:02;102169.00;;;28.50
44429;BMP180;30134;47.866;-4.222;2022-07-23T02:30:29;102165.00;;;28.40
44429;BMP180;30134;47.866;-4.222;2022-07-23T02:32:55;102169.00;;;28.50
44429;BMP180;30134;47.866;-4.222;2022-07-23T02:35:21;102167.00;;;28.40
44429;BMP180;30134;47.866;-4.222;2022-07-23T02:37:47;102167.00;;;28.40
44429;BMP180;30134;47.866;-4.222;2022-07-23T02:40:13;102170.00;;;28.50
44429;BMP180;30134;47.866;-4.222;2022-07-23T02:42:39;102176.00;;;28.40
44429;BMP180;30134;47.866;-4.222;2022-07-23T02:45:09;102179.00;;;28.40
44429;BMP180;30134;47.866;-4.222;2022-07-23T02:47:37;102182.00;;;28.20
44429;BMP180;30134;47.866;-4.222;2022-07-23T02:50:09;102192.00;;;28.40
44429;BMP180;30134;47.866;-4.222;2022-07-23T02:52:36;102191.00;;;28.30
44429;BMP180;30134;47.866;-4.222;2022-07-23T02:55:02;102194.00;;;28.50
44429;BMP180;30134;47.866;-4.222;2022-07-23T02:57:28;102200.00;;;28.50
44429;BMP180;30134;47.866;-4.222;2022-07-23T02:59:54;102192.00;;;28.20
44429;BMP180;30134;47.866;-4.222;2022-07-23T03:02:20;102193.00;;;28.10
44429;BMP180;30134;47.866;-4.222;2022-07-23T03:04:46;102191.00;;;28.40
44429;BMP180;30134;47.866;-4.222;2022-07-23T03:07:12;102189.00;;;28.50
44429;BMP180;30134;47.866;-4.222;2022-07-23T03:09:38;102190.00;;;28.20
44429;BMP180;30134;47.866;-4.222;2022-07-23T03:12:04;102181.00;;;28.50
44429;BMP180;30134;47.866;-4.222;2022-07-23T03:14:30;102185.00;;;28.20
44429;BMP180;30134;47.866;-4.222;2022-07-23T03:16:56;102187.00;;;28.30
44429;BMP180;30134;47.866;-4.222;2022-07-23T03:19:22;102191.00;;;28.30
44429;BMP180;30134;47.866;-4.222;2022-07-23T03:21:48;102193.00;;;28.40
44429;BMP180;30134;47.866;-4.222;2022-07-23T03:24:13;102188.00;;;28.20
44429;BMP180;30134;47.866;-4.222;2022-07-23T03:26:39;102192.00;;;28.10
44429;BMP180;30134;47.866;-4.222;2022-07-23T03:29:05;102189.00;;;28.10
44429;BMP180;30134;47.866;-4.222;2022-07-23T03:31:31;102193.00;;;28.50
44429;BMP180;30134;47.866;-4.222;2022-07-23T03:33:58;102178.00;;;28.40
44429;BMP180;30134;47.866;-4.222;2022-07-23T03:36:24;102182.00;;;28.40
44429;BMP180;30134;47.866;-4.222;2022-07-23T03:38:50;102176.00;;;28.10
44429;BMP180;30134;47.866;-4.222;2022-07-23T03:41:17;102188.00;;;28.40
44429;BMP180;30134;47.866;-4.222;2022-07-23T03:43:43;102182.00;;;28.30
44429;BMP180;30134;47.866;-4.222;2022-07-23T03:46:09;102183.00;;;28.50
44429;BMP180;30134;47.866;-4.222;2022-07-23T03:48:35;102185.00;;;28.40
44429;BMP180;30134;47.866;-4.222;2022-07-23T03:51:08;102188.00;;;28.40
44429;BMP180;30134;47.866;-4.222;2022-07-23T03:53:35;102188.00;;;28.50
44429;BMP180;30134;47.866;-4.222;2022-07-23T03:56:01;102186.00;;;28.40
44429;BMP180;30134;47.866;-4.222;2022-07-23T03:58:26;102195.00;;;28.30
44429;BMP180;30134;47.866;-4.222;2022-07-23T04:00:52;102187.00;;;28.40
44429;BMP180;30134;47.866;-4.222;2022-07-23T04:03:18;102190.00;;;28.50
44429;BMP180;30134;47.866;-4.222;2022-07-23T04:05:44;102187.00;;;28.50
44429;BMP180;30134;47.866;-4.222;2022-07-23T04:08:10;102186.00;;;28.50
44429;BMP180;30134;47.866;-4.222;2022-07-23T04:10:36;102180.00;;;28.30
44429;BMP180;30134;47.866;-4.222;2022-07-23T04:13:02;102177.00;;;28.20
44429;BMP180;30134;47.866;-4.222;2022-07-23T04:15:28;102171.00;;;28.50
44429;BMP180;30134;47.866;-4.222;2022-07-23T04:17:54;102177.00;;;28.20
44429;BMP180;30134;47.866;-4.222;2022-07-23T04:20:20;102175.00;;;28.40
44429;BMP180;30134;47.866;-4.222;2022-07-23T04:22:46;102170.00;;;28.30
44429;BMP180;30134;47.866;-4.222;2022-07-23T04:25:12;102175.00;;;28.50
44429;BMP180;30134;47.866;-4.222;2022-07-23T04:27:41;102172.00;;;28.20
44429;BMP180;30134;47.866;-4.222;2022-07-23T04:30:08;102165.00;;;28.20
44429;BMP180;30134;47.866;-4.222;2022-07-23T04:32:34;102162.00;;;28.10
44429;BMP180;30134;47.866;-4.222;2022-07-23T04:35:00;102170.00;;;28.20
44429;BMP180;30134;47.866;-4.222;2022-07-23T04:37:26;102173.00;;;28.30
44429;BMP180;30134;47.866;-4.222;2022-07-23T04:39:52;102171.00;;;28.30
44429;BMP180;30134;47.866;-4.222;2022-07-23T04:42:18;102176.00;;;27.90
44429;BMP180;30134;47.866;-4.222;2022-07-23T04:44:44;102171.00;;;27.80
44429;BMP180;30134;47.866;-4.222;2022-07-23T04:47:10;102181.00;;;28.40
44429;BMP180;30134;47.866;-4.222;2022-07-23T04:49:36;102179.00;;;28.30
44429;BMP180;30134;47.866;-4.222;2022-07-23T04:52:08;102179.00;;;28.30
44429;BMP180;30134;47.866;-4.222;2022-07-23T04:54:34;102179.00;;;28.30
44429;BMP180;30134;47.866;-4.222;2022-07-23T04:57:00;102186.00;;;28.30
44429;BMP180;30134;47.866;-4.222;2022-07-23T04:59:26;102177.00;;;28.20
44429;BMP180;30134;47.866;-4.222;2022-07-23T05:01:52;102176.00;;;28.30
44429;BMP180;30134;47.866;-4.222;2022-07-23T05:04:18;102177.00;;;28.20
44429;BMP180;30134;47.866;-4.222;2022-07-23T05:06:44;102190.00;;;28.40
44429;BMP180;30134;47.866;-4.222;2022-07-23T05:09:10;102189.00;;;27.90
44429;BMP180;30134;47.866;-4.222;2022-07-23T05:11:36;102192.00;;;28.20
44429;BMP180;30134;47.866;-4.222;2022-07-23T05:14:02;102193.00;;;28.30
44429;BMP180;30134;47.866;-4.222;2022-07-23T05:16:28;102195.00;;;28.20
44429;BMP180;30134;47.866;-4.222;2022-07-23T05:18:54;102195.00;;;28.20
44429;BMP180;30134;47.866;-4.222;2022-07-23T05:21:20;102196.00;;;28.20
44429;BMP180;30134;47.866;-4.222;2022-07-23T05:23:46;102195.00;;;28.00
44429;BMP180;30134;47.866;-4.222;2022-07-23T05:26:13;102194.00;;;28.30
44429;BMP180;30134;47.866;-4.222;2022-07-23T05:28:39;102192.00;;;28.20
44429;BMP180;30134;47.866;-4.222;2022-07-23T05:31:05;102194.00;;;28.20
44429;BMP180;30134;47.866;-4.222;2022-07-23T05:33:32;102200.00;;;28.20
44429;BMP180;30134;47.866;-4.222;2022-07-23T05:36:04;102196.00;;;28.20
44429;BMP180;30134;47.866;-4.222;2022-07-23T05:38:32;102196.00;;;28.10
44429;BMP180;30134;47.866;-4.222;2022-07-23T05:40:59;102195.00;;;28.20
44429;BMP180;30134;47.866;-4.222;2022-07-23T05:43:25;102202.00;;;27.80
44429;BMP180;30134;47.866;-4.222;2022-07-23T05:45:51;102197.00;;;28.20
44429;BMP180;30134;47.866;-4.222;2022-07-23T05:48:17;102197.00;;;27.80
44429;BMP180;30134;47.866;-4.222;2022-07-23T05:50:43;102198.00;;;28.20
44429;BMP180;30134;47.866;-4.222;2022-07-23T05:53:16;102200.00;;;28.00
44429;BMP180;30134;47.866;-4.222;2022-07-23T05:55:42;102201.00;;;28.20
44429;BMP180;30134;47.866;-4.222;2022-07-23T05:58:08;102191.00;;;28.20
44429;BMP180;30134;47.866;-4.222;2022-07-23T06:00:35;102191.00;;;28.20
44429;BMP180;30134;47.866;-4.222;2022-07-23T06:03:01;102192.00;;;28.00
44429;BMP180;30134;47.866;-4.222;2022-07-23T06:05:27;102185.00;;;28.30
44429;BMP180;30134;47.866;-4.222;2022-07-23T06:07:53;102187.00;;;28.30
44429;BMP180;30134;47.866;-4.222;2022-07-23T06:10:20;102190.00;;;28.30
44429;BMP180;30134;47.866;-4.222;2022-07-23T06:12:46;102182.00;;;28.10
44429;BMP180;30134;47.866;-4.222;2022-07-23T06:15:13;102194.00;;;28.30
44429;BMP180;30134;47.866;-4.222;2022-07-23T06:17:39;102184.00;;;28.00
44429;BMP180;30134;47.866;-4.222;2022-07-23T06:20:09;102178.00;;;28.10
44429;BMP180;30134;47.866;-4.222;2022-07-23T06:22:36;102189.00;;;28.10
44429;BMP180;30134;47.866;-4.222;2022-07-23T06:25:03;102183.00;;;28.10
44429;BMP180;30134;47.866;-4.222;2022-07-23T06:27:29;102192.00;;;28.20
44429;BMP180;30134;47.866;-4.222;2022-07-23T06:29:55;102190.00;;;28.20
44429;BMP180;30134;47.866;-4.222;2022-07-23T06:32:21;102200.00;;;28.20
44429;BMP180;30134;47.866;-4.222;2022-07-23T06:34:47;102197.00;;;28.20
44429;BMP180;30134;47.866;-4.222;2022-07-23T06:37:13;102196.00;;;28.30
44429;BMP180;30134;47.866;-4.222;2022-07-23T06:39:39;102200.00;;;28.10
44429;BMP180;30134;47.866;-4.222;2022-07-23T06:42:05;102204.00;;;28.00
44429;BMP180;30134;47.866;-4.222;2022-07-23T06:44:31;102197.00;;;28.20
44429;BMP180;30134;47.866;-4.222;2022-07-23T06:46:57;102198.00;;;28.20
44429;BMP180;30134;47.866;-4.222;2022-07-23T06:49:22;102202.00;;;28.10
44429;BMP180;30134;47.866;-4.222;2022-07-23T06:51:49;102206.00;;;28.30
44429;BMP180;30134;47.866;-4.222;2022-07-23T06:54:21;102211.00;;;28.40
44429;BMP180;30134;47.866;-4.222;2022-07-23T06:56:47;102203.00;;;28.20
44429;BMP180;30134;47.866;-4.222;2022-07-23T06:59:14;102208.00;;;28.30
44429;BMP180;30134;47.866;-4.222;2022-07-23T07:01:40;102202.00;;;28.10
44429;BMP180;30134;47.866;-4.222;2022-07-23T07:04:06;102201.00;;;28.20
44429;BMP180;30134;47.866;-4.222;2022-07-23T07:06:32;102203.00;;;28.30
44429;BMP180;30134;47.866;-4.222;2022-07-23T07:08:58;102205.00;;;28.40
44429;BMP180;30134;47.866;-4.222;2022-07-23T07:11:24;102201.00;;;28.30
44429;BMP180;30134;47.866;-4.222;2022-07-23T07:13:51;102204.00;;;28.30
44429;BMP180;30134;47.866;-4.222;2022-07-23T07:16:17;102205.00;;;28.40
44429;BMP180;30134;47.866;-4.222;2022-07-23T07:18:43;102202.00;;;28.30
44429;BMP180;30134;47.866;-4.222;2022-07-23T07:21:09;102201.00;;;28.50
44429;BMP180;30134;47.866;-4.222;2022-07-23T07:23:37;102207.00;;;28.30
44429;BMP180;30134;47.866;-4.222;2022-07-23T07:26:03;102208.00;;;28.50
44429;BMP180;30134;47.866;-4.222;2022-07-23T07:28:29;102204.00;;;28.50
44429;BMP180;30134;47.866;-4.222;2022-07-23T07:30:55;102203.00;;;28.50
44429;BMP180;30134;47.866;-4.222;2022-07-23T07:33:21;102209.00;;;28.50
44429;BMP180;30134;47.866;-4.222;2022-07-23T07:35:47;102196.00;;;28.30
44429;BMP180;30134;47.866;-4.222;2022-07-23T07:38:17;102197.00;;;28.10
44429;BMP180;30134;47.866;-4.222;2022-07-23T07:40:44;102202.00;;;28.20
44429;BMP180;30134;47.866;-4.222;2022-07-23T07:43:10;102196.00;;;28.00
44429;BMP180;30134;47.866;-4.222;2022-07-23T07:45:36;102194.00;;;28.00
44429;BMP180;30134;47.866;-4.222;2022-07-23T07:48:04;102199.00;;;28.10
44429;BMP180;30134;47.866;-4.222;2022-07-23T07:50:30;102199.00;;;28.20
44429;BMP180;30134;47.866;-4.222;2022-07-23T07:52:56;102202.00;;;27.70
44429;BMP180;30134;47.866;-4.222;2022-07-23T07:55:28;102207.00;;;27.70
44429;BMP180;30134;47.866;-4.222;2022-07-23T07:57:54;102204.00;;;27.50
44429;BMP180;30134;47.866;-4.222;2022-07-23T08:00:21;102201.00;;;27.80
44429;BMP180;30134;47.866;-4.222;2022-07-23T08:02:50;102201.00;;;27.50
44429;BMP180;30134;47.866;-4.222;2022-07-23T08:05:24;102205.00;;;27.40
44429;BMP180;30134;47.866;-4.222;2022-07-23T08:07:51;102205.00;;;27.30
44429;BMP180;30134;47.866;-4.222;2022-07-23T08:10:19;102213.00;;;27.20
44429;BMP180;30134;47.866;-4.222;2022-07-23T08:12:55;102209.00;;;27.30
44429;BMP180;30134;47.866;-4.222;2022-07-23T08:15:27;102204.00;;;27.70
44429;BMP180;30134;47.866;-4.222;2022-07-23T08:17:53;102216.00;;;27.60
44429;BMP180;30134;47.866;-4.222;2022-07-23T08:20:21;102219.00;;;28.10
44429;BMP180;30134;47.866;-4.222;2022-07-23T08:22:52;102219.00;;;28.00
44429;BMP180;30134;47.866;-4.222;2022-07-23T08:25:31;102213.00;;;28.10
44429;BMP180;30134;47.866;-4.222;2022-07-23T08:27:59;102203.00;;;27.60
44429;BMP180;30134;47.866;-4.222;2022-07-23T08:30:26;102219.00;;;27.70
44429;BMP180;30134;47.866;-4.222;2022-07-23T08:33:01;102205.00;;;27.60
44429;BMP180;30134;47.866;-4.222;2022-07-23T08:35:46;102212.00;;;27.60
44429;BMP180;30134;47.866;-4.222;2022-07-23T08:38:15;102215.00;;;27.60
44429;BMP180;30134;47.866;-4.222;2022-07-23T08:40:45;102220.00;;;27.70
44429;BMP180;30134;47.866;-4.222;2022-07-23T08:43:18;102219.00;;;27.60
44429;BMP180;30134;47.866;-4.222;2022-07-23T08:45:47;102216.00;;;27.70
44429;BMP180;30134;47.866;-4.222;2022-07-23T08:48:21;102218.00;;;27.60
44429;BMP180;30134;47.866;-4.222;2022-07-23T08:50:51;102218.00;;;27.60
44429;BMP180;30134;47.866;-4.222;2022-07-23T08:53:18;102210.00;;;27.40
44429;BMP180;30134;47.866;-4.222;2022-07-23T08:55:55;102207.00;;;27.50
44429;BMP180;30134;47.866;-4.222;2022-07-23T08:58:22;102216.00;;;27.40
44429;BMP180;30134;47.866;-4.222;2022-07-23T09:00:49;102219.00;;;27.40
44429;BMP180;30134;47.866;-4.222;2022-07-23T09:05:43;102209.00;;;27.50
44429;BMP180;30134;47.866;-4.222;2022-07-23T09:08:33;102207.00;;;27.70
44429;BMP180;30134;47.866;-4.222;2022-07-23T09:11:05;102206.00;;;27.50
44429;BMP180;30134;47.866;-4.222;2022-07-23T09:13:51;102202.00;;;27.40
44429;BMP180;30134;47.866;-4.222;2022-07-23T09:16:27;102208.00;;;27.60
44429;BMP180;30134;47.866;-4.222;2022-07-23T09:18:56;102205.00;;;27.50
44429;BMP180;30134;47.866;-4.222;2022-07-23T09:21:32;102210.00;;;27.50
44429;BMP180;30134;47.866;-4.222;2022-07-23T09:24:00;102206.00;;;27.60
44429;BMP180;30134;47.866;-4.222;2022-07-23T09:26:43;102221.00;;;27.60
44429;BMP180;30134;47.866;-4.222;2022-07-23T09:29:21;102214.00;;;27.70
44429;BMP180;30134;47.866;-4.222;2022-07-23T09:32:00;102222.00;;;27.40
44429;BMP180;30134;47.866;-4.222;2022-07-23T09:34:32;102213.00;;;27.50
44429;BMP180;30134;47.866;-4.222;2022-07-23T09:39:41;102209.00;;;27.20
44429;BMP180;30134;47.866;-4.222;2022-07-23T09:42:20;102211.00;;;27.40
44429;BMP180;30134;47.866;-4.222;2022-07-23T09:44:54;102206.00;;;27.50
44429;BMP180;30134;47.866;-4.222;2022-07-23T09:47:23;102224.00;;;27.70
44429;BMP180;30134;47.866;-4.222;2022-07-23T09:50:09;102220.00;;;27.40
44429;BMP180;30134;47.866;-4.222;2022-07-23T09:52:48;102227.00;;;27.20
44429;BMP180;30134;47.866;-4.222;2022-07-23T09:55:17;102215.00;;;27.50
44429;BMP180;30134;47.866;-4.222;2022-07-23T09:57:49;102222.00;;;27.30
44429;BMP180;30134;47.866;-4.222;2022-07-23T10:00:16;102228.00;;;27.50
44429;BMP180;30134;47.866;-4.222;2022-07-23T10:02:46;102226.00;;;27.30
44429;BMP180;30134;47.866;-4.222;2022-07-23T10:05:12;102216.00;;;27.60
44429;BMP180;30134;47.866;-4.222;2022-07-23T10:07:40;102221.00;;;27.40
44429;BMP180;30134;47.866;-4.222;2022-07-23T10:10:10;102223.00;;;27.30
44429;BMP180;30134;47.866;-4.222;2022-07-23T10:12:37;102222.00;;;27.50
44429;BMP180;30134;47.866;-4.222;2022-07-23T10:15:05;102226.00;;;27.40
44429;BMP180;30134;47.866;-4.222;2022-07-23T10:17:37;102223.00;;;27.30
44429;BMP180;30134;47.866;-4.222;2022-07-23T10:20:04;102219.00;;;27.70
44429;BMP180;30134;47.866;-4.222;2022-07-23T10:22:38;102214.00;;;27.50
44429;BMP180;30134;47.866;-4.222;2022-07-23T10:31:37;102230.00;;;27.30
44429;BMP180;30134;47.866;-4.222;2022-07-23T10:40:22;102224.00;;;26.90
44429;BMP180;30134;47.866;-4.222;2022-07-23T10:42:52;102232.00;;;26.90
44429;BMP180;30134;47.866;-4.222;2022-07-23T10:45:34;102225.00;;;27.10
44429;BMP180;30134;47.866;-4.222;2022-07-23T10:51:13;102243.00;;;27.40
44429;BMP180;30134;47.866;-4.222;2022-07-23T10:53:55;102237.00;;;27.00
44429;BMP180;30134;47.866;-4.222;2022-07-23T10:59:27;102229.00;;;27.10
44429;BMP180;30134;47.866;-4.222;2022-07-23T11:01:53;102233.00;;;27.10
44429;BMP180;30134;47.866;-4.222;2022-07-23T11:04:51;102234.00;;;27.30
44429;BMP180;30134;47.866;-4.222;2022-07-23T11:07:18;102231.00;;;27.60
44429;BMP180;30134;47.866;-4.222;2022-07-23T11:09:48;102242.00;;;27.40
44429;BMP180;30134;47.866;-4.222;2022-07-23T11:17:30;102232.00;;;27.10
44429;BMP180;30134;47.866;-4.222;2022-07-23T11:20:12;102239.00;;;27.30
44429;BMP180;30134;47.866;-4.222;2022-07-23T11:25:14;102228.00;;;27.10
44429;BMP180;30134;47.866;-4.222;2022-07-23T11:28:17;102230.00;;;27.40
44429;BMP180;30134;47.866;-4.222;2022-07-23T11:30:46;102232.00;;;27.30
44429;BMP180;30134;47.866;-4.222;2022-07-23T11:35:42;102231.00;;;27.10
44429;BMP180;30134;47.866;-4.222;2022-07-23T11:38:23;102213.00;;;27.00
44429;BMP180;30134;47.866;-4.222;2022-07-23T11:40:54;102224.00;;;27.20
44429;BMP180;30134;47.866;-4.222;2022-07-23T11:43:23;102224.00;;;27.40
44429;BMP180;30134;47.866;-4.222;2022-07-23T11:45:53;102224.00;;;27.50
44429;BMP180;30134;47.866;-4.222;2022-07-23T11:48:30;102215.00;;;27.50
44429;BMP180;30134;47.866;-4.222;2022-07-23T11:50:57;102221.00;;;27.60
44429;BMP180;30134;47.866;-4.222;2022-07-23T11:53:28;102227.00;;;27.60
44429;BMP180;30134;47.866;-4.222;2022-07-23T11:56:10;102223.00;;;27.70
44429;BMP180;30134;47.866;-4.222;2022-07-23T11:58:37;102233.00;;;27.50
44429;BMP180;30134;47.866;-4.222;2022-07-23T12:01:09;102235.00;;;27.70
44429;BMP180;30134;47.866;-4.222;2022-07-23T12:03:35;102227.00;;;27.70
44429;BMP180;30134;47.866;-4.222;2022-07-23T12:06:01;102228.00;;;27.70
44429;BMP180;30134;47.866;-4.222;2022-07-23T12:08:27;102235.00;;;27.50
44429;BMP180;30134;47.866;-4.222;2022-07-23T12:10:53;102231.00;;;27.70
44429;BMP180;30134;47.866;-4.222;2022-07-23T12:13:22;102227.00;;;27.60
44429;BMP180;30134;47.866;-4.222;2022-07-23T12:15:52;102232.00;;;27.80
44429;BMP180;30134;47.866;-4.222;2022-07-23T12:18:27;102239.00;;;27.70
44429;BMP180;30134;47.866;-4.222;2022-07-23T12:20:57;102229.00;;;27.70
44429;BMP180;30134;47.866;-4.222;2022-07-23T12:23:31;102224.00;;;27.70
44429;BMP180;30134;47.866;-4.222;2022-07-23T12:26:02;102235.00;;;27.80
44429;BMP180;30134;47.866;-4.222;2022-07-23T12:28:32;102231.00;;;27.70
44429;BMP180;30134;47.866;-4.222;2022-07-23T12:30:59;102232.00;;;27.70
44429;BMP180;30134;47.866;-4.222;2022-07-23T12:33:28;102223.00;;;27.60
44429;BMP180;30134;47.866;-4.222;2022-07-23T12:35:57;102228.00;;;27.80
44429;BMP180;30134;47.866;-4.222;2022-07-23T12:38:26;102220.00;;;27.60
44429;BMP180;30134;47.866;-4.222;2022-07-23T12:40:59;102222.00;;;27.50
44429;BMP180;30134;47.866;-4.222;2022-07-23T12:43:28;102239.00;;;27.50
44429;BMP180;30134;47.866;-4.222;2022-07-23T12:46:20;102221.00;;;27.70
44429;BMP180;30134;47.866;-4.222;2022-07-23T12:48:50;102228.00;;;27.60
44429;BMP180;30134;47.866;-4.222;2022-07-23T12:54:04;102225.00;;;27.80
44429;BMP180;30134;47.866;-4.222;2022-07-23T12:56:33;102227.00;;;27.70
44429;BMP180;30134;47.866;-4.222;2022-07-23T13:01:55;102226.00;;;27.70
44429;BMP180;30134;47.866;-4.222;2022-07-23T13:04:30;102221.00;;;27.70
44429;BMP180;30134;47.866;-4.222;2022-07-23T13:07:01;102217.00;;;27.80
44429;BMP180;30134;47.866;-4.222;2022-07-23T13:09:31;102211.00;;;27.70
44429;BMP180;30134;47.866;-4.222;2022-07-23T13:11:59;102207.00;;;27.60
44429;BMP180;30134;47.866;-4.222;2022-07-23T13:14:27;102213.00;;;27.60
44429;BMP180;30134;47.866;-4.222;2022-07-23T13:16:55;102208.00;;;27.60
44429;BMP180;30134;47.866;-4.222;2022-07-23T13:19:21;102209.00;;;27.90
44429;BMP180;30134;47.866;-4.222;2022-07-23T13:21:54;102213.00;;;27.80
44429;BMP180;30134;47.866;-4.222;2022-07-23T13:24:21;102210.00;;;27.80
44429;BMP180;30134;47.866;-4.222;2022-07-23T13:26:47;102216.00;;;27.70
44429;BMP180;30134;47.866;-4.222;2022-07-23T13:29:19;102209.00;;;27.90
44429;BMP180;30134;47.866;-4.222;2022-07-23T13:31:45;102209.00;;;27.70
44429;BMP180;30134;47.866;-4.222;2022-07-23T13:34:11;102209.00;;;27.90
44429;BMP180;30134;47.866;-4.222;2022-07-23T13:36:37;102216.00;;;27.90
44429;BMP180;30134;47.866;-4.222;2022-07-23T13:39:04;102214.00;;;27.70
44429;BMP180;30134;47.866;-4.222;2022-07-23T13:41:30;102209.00;;;28.00
44429;BMP180;30134;47.866;-4.222;2022-07-23T13:43:57;102208.00;;;27.90
44429;BMP180;30134;47.866;-4.222;2022-07-23T13:46:24;102209.00;;;27.90
44429;BMP180;30134;47.866;-4.222;2022-07-23T13:48:50;102202.00;;;28.00
44429;BMP180;30134;47.866;-4.222;2022-07-23T13:51:16;102213.00;;;28.00
44429;BMP180;30134;47.866;-4.222;2022-07-23T13:53:47;102195.00;;;27.90
44429;BMP180;30134;47.866;-4.222;2022-07-23T13:56:13;102199.00;;;28.00
44429;BMP180;30134;47.866;-4.222;2022-07-23T13:58:39;102196.00;;;27.70
44429;BMP180;30134;47.866;-4.222;2022-07-23T14:01:06;102204.00;;;27.90
44429;BMP180;30134;47.866;-4.222;2022-07-23T14:03:36;102191.00;;;27.80
44429;BMP180;30134;47.866;-4.222;2022-07-23T14:06:02;102203.00;;;28.10
44429;BMP180;30134;47.866;-4.222;2022-07-23T14:08:29;102198.00;;;27.80
44429;BMP180;30134;47.866;-4.222;2022-07-23T14:10:54;102210.00;;;27.70
44429;BMP180;30134;47.866;-4.222;2022-07-23T14:13:20;102203.00;;;27.90
44429;BMP180;30134;47.866;-4.222;2022-07-23T14:15:46;102207.00;;;28.10
44429;BMP180;30134;47.866;-4.222;2022-07-23T14:18:12;102216.00;;;28.00
44429;BMP180;30134;47.866;-4.222;2022-07-23T14:20:38;102204.00;;;28.00
44429;BMP180;30134;47.866;-4.222;2022-07-23T14:23:04;102207.00;;;27.80
44429;BMP180;30134;47.866;-4.222;2022-07-23T14:25:30;102200.00;;;27.90
44429;BMP180;30134;47.866;-4.222;2022-07-23T14:27:56;102201.00;;;27.90
44429;BMP180;30134;47.866;-4.222;2022-07-23T14:30:23;102194.00;;;27.90